Time;durP1;ratioP1;P1;durP2;ratioP2;P2;SDS_P1;SDS_P2;PMS_P1;PMS_P2;Temp;Humidity;BMP_temperature;BMP_pressure;BME280_temperature;BME280_humidity;BME280_pressure;Samples;Min_cycle;Max_cycle;Signal;HPM_P1;HPM_P2
2021/08/11 00:00:09;;;;;;;4.72;2.97;;;;;;;16.79;87.03;99022.97;5015635;28;20120;-72
2021/08/11 00:02:34;;;;;;;5.20;3.00;;;;;;;16.74;87.63;99025.56;5015159;28;20480;-72
2021/08/11 00:05:00;;;;;;;9.77;3.20;;;;;;;16.71;87.57;99001.41;5013061;28;20025;-73
2021/08/11 00:07:25;;;;;;;7.15;3.22;;;;;;;16.74;87.79;99032.91;5007524;28;20434;-72
2021/08/11 00:09:50;;;;;;;4.60;2.63;;;;;;;16.64;88.33;99012.50;5008678;28;20021;-71
2021/08/11 00:12:15;;;;;;;6.85;3.08;;;;;;;16.63;89.12;99031.84;5011137;28;20030;-75
2021/08/11 00:14:41;;;;;;;5.03;3.10;;;;;;;16.49;89.59;99023.06;5012642;28;20062;-73
2021/08/11 00:17:06;;;;;;;5.80;3.28;;;;;;;16.44;89.82;99012.81;5015824;28;20075;-74
2021/08/11 00:19:31;;;;;;;6.72;3.28;;;;;;;16.43;89.91;99027.56;5010172;28;20117;-74
2021/08/11 00:21:57;;;;;;;6.68;2.90;;;;;;;16.42;90.42;99036.81;5004840;28;20129;-72
2021/08/11 00:24:22;;;;;;;5.13;3.25;;;;;;;16.22;90.35;99019.94;5012430;28;20026;-73
2021/08/11 00:26:47;;;;;;;7.68;3.08;;;;;;;16.21;90.46;99023.72;4995589;28;20384;-73
2021/08/11 00:29:13;;;;;;;7.55;3.20;;;;;;;16.13;91.24;99024.88;5003551;28;20069;-73
2021/08/11 00:31:38;;;;;;;5.32;3.15;;;;;;;16.06;92.07;99037.81;5002327;28;20131;-73
2021/08/11 00:34:03;;;;;;;6.15;3.30;;;;;;;16.06;92.45;99043.28;5011201;28;20077;-71
2021/08/11 00:36:29;;;;;;;6.25;3.08;;;;;;;15.87;92.63;99036.19;5010885;28;20169;-73
2021/08/11 00:38:54;;;;;;;6.65;3.20;;;;;;;15.88;93.55;99029.72;5016873;28;20108;-73
2021/08/11 00:41:19;;;;;;;6.57;3.05;;;;;;;15.95;93.75;99046.78;4996936;28;20026;-72
2021/08/11 00:43:45;;;;;;;8.20;3.00;;;;;;;15.95;93.60;99042.16;5006157;28;20133;-72
2021/08/11 00:46:10;;;;;;;4.55;3.20;;;;;;;15.89;93.34;99032.19;5013869;28;20048;-73
2021/08/11 00:48:37;;;;;;;6.35;3.08;;;;;;;15.87;93.52;99034.31;5014165;28;20025;-72
2021/08/11 00:51:03;;;;;;;3.97;2.80;;;;;;;15.86;93.26;99031.81;5014924;28;20037;-73
2021/08/11 00:53:30;;;;;;;3.90;2.88;;;;;;;15.89;93.09;99031.34;5014563;28;20030;-72
2021/08/11 00:55:58;;;;;;;6.47;3.20;;;;;;;15.96;93.23;99040.28;5013397;28;20038;-72
2021/08/11 00:58:24;;;;;;;6.57;3.13;;;;;;;16.06;92.41;99047.88;5013062;28;20053;-73
2021/08/11 01:00:51;;;;;;;4.75;3.17;;;;;;;16.09;91.68;99037.34;5014513;28;20080;-73
2021/08/11 01:03:22;;;;;;;5.90;3.30;;;;;;;16.08;91.56;99041.13;5013696;28;20136;-73
2021/08/11 01:05:49;;;;;;;6.10;3.03;;;;;;;16.09;91.62;99036.53;5012553;28;20083;-73
2021/08/11 01:08:15;;;;;;;4.95;2.78;;;;;;;15.98;91.55;99027.22;5012875;28;20034;-74
2021/08/11 01:10:41;;;;;;;4.78;3.28;;;;;;;15.94;91.84;99040.50;5013302;28;20033;-73
2021/08/11 01:13:07;;;;;;;6.20;2.78;;;;;;;15.87;92.03;99036.19;5009853;28;20025;-73
2021/08/11 01:15:32;;;;;;;6.53;3.00;;;;;;;15.90;92.39;99041.19;5014605;28;20032;-74
2021/08/11 01:17:58;;;;;;;8.48;3.28;;;;;;;15.81;92.42;99040.69;5015647;28;20101;-73
2021/08/11 01:20:23;;;;;;;6.85;3.47;;;;;;;15.74;92.91;99035.31;5023704;28;20022;-74
2021/08/11 01:22:54;;;;;;;7.88;4.03;;;;;;;15.63;92.85;99038.81;5014755;28;20053;-73
2021/08/11 01:25:26;;;;;;;9.43;4.13;;;;;;;15.50;93.55;99025.34;5012132;28;20490;-74
2021/08/11 01:28:10;;;;;;;7.35;3.83;;;;;;;15.45;94.36;99033.38;5011565;28;20022;-73
2021/08/11 01:30:41;;;;;;;7.78;3.70;;;;;;;15.36;94.85;99034.78;5013295;28;20036;-73
2021/08/11 01:33:30;;;;;;;7.15;3.70;;;;;;;15.39;94.62;99037.88;5010684;28;20022;-74
2021/08/11 01:36:11;;;;;;;9.93;3.85;;;;;;;15.22;93.85;99034.09;5013917;28;20034;-73
2021/08/11 01:38:46;;;;;;;7.80;3.40;;;;;;;15.09;94.48;99025.03;5012602;28;20037;-74
2021/08/11 01:41:12;;;;;;;7.45;3.53;;;;;;;15.13;96.01;99011.75;5014179;28;20026;-73
2021/08/11 01:43:43;;;;;;;5.85;3.60;;;;;;;15.31;95.75;99019.09;5013923;28;20549;-73
2021/08/11 01:46:10;;;;;;;8.63;3.15;;;;;;;15.26;95.40;99014.31;5009526;28;20030;-73
2021/08/11 01:48:38;;;;;;;10.45;3.75;;;;;;;15.30;95.63;99004.66;5007257;28;20040;-73
2021/08/11 01:51:05;;;;;;;9.90;3.78;;;;;;;15.21;96.80;99014.19;5012310;28;20029;-73
2021/08/11 01:53:33;;;;;;;5.28;3.65;;;;;;;15.15;97.91;99030.63;5013421;28;20033;-73
2021/08/11 01:55:59;;;;;;;8.15;3.85;;;;;;;15.03;97.75;99027.81;5047650;23;20562;-69
2021/08/11 01:58:27;;;;;;;7.88;3.72;;;;;;;14.84;97.93;99018.81;5005005;28;20435;-69
2021/08/11 02:00:57;;;;;;;7.60;4.07;;;;;;;14.91;98.65;99033.19;4999399;28;20034;-69
2021/08/11 02:03:24;;;;;;;7.18;3.75;;;;;;;14.86;98.25;99028.41;4993933;28;20420;-68
2021/08/11 02:05:52;;;;;;;7.70;3.55;;;;;;;14.87;98.30;99027.34;5008127;28;20030;-69
2021/08/11 02:08:18;;;;;;;4.05;3.00;;;;;;;14.89;99.34;99018.97;4979490;28;20073;-69
2021/08/11 02:10:45;;;;;;;6.05;3.22;;;;;;;14.98;98.90;99039.38;5012797;28;20406;-69
2021/08/11 02:13:10;;;;;;;5.68;3.55;;;;;;;14.96;98.83;99033.34;5011800;28;20105;-69
2021/08/11 02:15:36;;;;;;;6.50;3.35;;;;;;;14.93;98.80;99032.94;5011542;28;20194;-70
2021/08/11 02:18:02;;;;;;;7.70;3.42;;;;;;;14.83;99.03;99023.41;5012231;28;20029;-69
2021/08/11 02:20:28;;;;;;;5.95;3.67;;;;;;;14.82;99.06;99029.09;5011393;28;20064;-69
2021/08/11 02:22:53;;;;;;;5.20;3.70;;;;;;;14.87;99.81;99024.63;5008909;28;20392;-69
2021/08/11 02:25:18;;;;;;;6.68;3.45;;;;;;;14.97;99.61;99035.00;5012273;28;20032;-69
2021/08/11 02:27:53;;;;;;;5.68;3.50;;;;;;;14.96;99.27;99038.78;4998325;28;20022;-68
2021/08/11 02:30:26;;;;;;;6.18;3.95;;;;;;;14.91;99.28;99038.63;5008007;28;20511;-70
2021/08/11 02:32:54;;;;;;;6.07;3.60;;;;;;;14.86;99.32;99031.13;4997269;28;20072;-69
2021/08/11 02:35:33;;;;;;;7.27;3.50;;;;;;;14.77;99.39;99031.66;5008101;28;20379;-68
2021/08/11 02:38:04;;;;;;;5.70;3.17;;;;;;;14.69;99.17;99032.75;5012639;28;20026;-68
2021/08/11 02:40:39;;;;;;;4.22;3.20;;;;;;;14.46;99.25;99008.84;5010730;28;20037;-68
2021/08/11 02:43:16;;;;;;;6.72;3.65;;;;;;;14.65;99.57;99021.50;4992742;28;20555;-69
2021/08/11 02:45:42;;;;;;;6.30;3.60;;;;;;;14.68;99.38;99025.66;5005779;28;20034;-69
2021/08/11 02:48:11;;;;;;;5.82;3.00;;;;;;;14.79;99.04;99021.38;5007726;28;20022;-69
2021/08/11 02:50:38;;;;;;;4.72;2.92;;;;;;;14.70;98.52;99029.00;4997600;28;20033;-68
2021/08/11 02:53:05;;;;;;;5.25;2.85;;;;;;;14.61;98.47;99024.88;5012079;28;20030;-69
2021/08/11 02:55:32;;;;;;;5.03;3.08;;;;;;;14.53;98.33;99036.06;5011667;28;20029;-68
2021/08/11 02:57:57;;;;;;;7.25;3.60;;;;;;;14.48;98.70;99034.81;5012104;28;20487;-70
2021/08/11 03:00:23;;;;;;;7.22;3.40;;;;;;;14.31;99.17;99011.94;5012201;28;20029;-68
2021/08/11 03:02:49;;;;;;;7.25;3.63;;;;;;;14.31;99.13;99013.84;5008609;28;20021;-68
2021/08/11 03:05:15;;;;;;;6.82;3.35;;;;;;;14.40;99.56;99035.09;5004232;28;20025;-69
2021/08/11 03:07:42;;;;;;;7.43;3.83;;;;;;;14.40;99.50;99035.09;5011068;28;20057;-69
2021/08/11 03:10:09;;;;;;;7.88;3.45;;;;;;;14.38;99.52;99037.22;5011906;28;20034;-69
2021/08/11 03:12:35;;;;;;;8.15;3.50;;;;;;;14.42;99.56;99032.16;5011550;28;20030;-69
2021/08/11 03:15:01;;;;;;;4.93;3.25;;;;;;;14.52;99.11;99040.66;5011833;28;20030;-68
2021/08/11 03:17:27;;;;;;;6.15;3.40;;;;;;;14.46;98.13;99012.44;5011842;28;20072;-68
2021/08/11 03:19:52;;;;;;;5.90;3.42;;;;;;;14.56;96.96;99013.84;5012100;28;20065;-68
2021/08/11 03:22:19;;;;;;;4.97;3.08;;;;;;;14.64;96.63;99041.59;5011506;28;20021;-69
2021/08/11 03:24:44;;;;;;;5.40;3.35;;;;;;;14.53;96.96;99028.72;5011824;28;20141;-68
2021/08/11 03:27:09;;;;;;;5.00;3.25;;;;;;;14.39;97.63;99016.28;5014755;28;20541;-68
2021/08/11 03:29:35;;;;;;;6.15;3.80;;;;;;;14.41;97.95;99038.66;5012254;28;20018;-69
2021/08/11 03:32:00;;;;;;;9.60;3.45;;;;;;;14.12;99.15;99011.06;4996622;28;20463;-69
2021/08/11 03:34:26;;;;;;;5.85;3.33;;;;;;;14.16;99.46;99042.19;4997822;28;20034;-69
2021/08/11 03:36:51;;;;;;;6.22;3.97;;;;;;;14.10;100.00;99045.81;4997509;28;20041;-69
2021/08/11 03:39:16;;;;;;;8.07;3.88;;;;;;;14.03;100.00;99039.56;4996748;28;20033;-69
2021/08/11 03:41:41;;;;;;;6.35;3.35;;;;;;;13.81;100.00;99018.16;5015329;28;20021;-68
2021/08/11 03:44:07;;;;;;;6.35;3.42;;;;;;;13.95;100.00;99048.00;5013409;28;20103;-69
2021/08/11 03:46:32;;;;;;;5.55;3.70;;;;;;;14.09;100.00;99035.97;4997851;28;20022;-70
2021/08/11 03:48:58;;;;;;;8.45;4.35;;;;;;;13.94;100.00;99016.44;5015080;28;20040;-69
2021/08/11 03:51:23;;;;;;;8.75;3.90;;;;;;;13.96;100.00;99053.22;5015245;28;20034;-69
2021/08/11 03:53:49;;;;;;;6.22;3.30;;;;;;;13.83;100.00;99047.84;5014742;28;20030;-70
2021/08/11 03:56:14;;;;;;;5.47;3.42;;;;;;;13.81;100.00;99048.09;4995496;28;20159;-69
2021/08/11 03:58:39;;;;;;;6.15;3.50;;;;;;;13.75;100.00;99053.53;5006211;28;20025;-69
2021/08/11 04:01:05;;;;;;;5.68;3.60;;;;;;;13.72;100.00;99046.66;5015417;28;20042;-74
2021/08/11 04:03:31;;;;;;;5.80;3.75;;;;;;;13.88;100.00;99058.91;4991074;28;20029;-72
2021/08/11 04:05:56;;;;;;;5.50;3.33;;;;;;;13.93;100.00;99044.66;5014986;28;20037;-73
2021/08/11 04:08:21;;;;;;;7.45;2.90;;;;;;;14.09;99.18;99043.28;5014462;28;20071;-73
2021/08/11 04:10:47;;;;;;;7.55;3.10;;;;;;;14.01;99.12;99052.56;4996735;28;20077;-73
2021/08/11 04:13:17;;;;;;;7.60;3.28;;;;;;;13.96;99.67;99055.09;4996431;28;20018;-73
2021/08/11 04:15:43;;;;;;;5.65;3.50;;;;;;;13.95;99.67;99053.44;5014595;28;20058;-71
2021/08/11 04:18:08;;;;;;;6.13;3.85;;;;;;;13.85;100.00;99058.53;5014845;28;20065;-72
2021/08/11 04:20:34;;;;;;;7.90;4.15;;;;;;;13.89;100.00;99049.72;4991814;28;20036;-71
2021/08/11 04:22:59;;;;;;;6.80;4.13;;;;;;;13.74;100.00;99041.84;5007187;28;20479;-73
2021/08/11 04:25:26;;;;;;;10.18;4.53;;;;;;;13.84;100.00;99056.88;4989627;28;20022;-73
2021/08/11 04:27:52;;;;;;;6.10;4.13;;;;;;;13.88;100.00;99061.63;4978728;28;20046;-71
2021/08/11 04:30:18;;;;;;;8.50;4.45;;;;;;;13.94;100.00;99057.22;5004299;28;20033;-70
2021/08/11 04:32:43;;;;;;;9.07;4.68;;;;;;;13.91;100.00;99066.66;5006928;28;20101;-70
2021/08/11 04:35:09;;;;;;;8.18;4.97;;;;;;;13.84;100.00;99046.81;5013008;28;20033;-72
2021/08/11 04:37:38;;;;;;;6.85;4.50;;;;;;;13.88;100.00;99053.47;5009896;28;20021;-72
2021/08/11 04:40:09;;;;;;;9.65;4.22;;;;;;;13.93;100.00;99044.66;5008227;28;20109;-71
2021/08/11 04:42:34;;;;;;;10.77;4.13;;;;;;;14.01;100.00;99039.78;5000603;28;20120;-73
2021/08/11 04:45:00;;;;;;;10.65;4.40;;;;;;;14.02;99.39;99049.63;5013762;28;20104;-72
2021/08/11 04:47:26;;;;;;;7.10;3.83;;;;;;;14.34;98.65;99063.19;5013165;28;20115;-72
2021/08/11 04:49:51;;;;;;;7.10;3.85;;;;;;;14.25;97.79;99057.22;5014167;28;20651;-75
2021/08/11 04:52:16;;;;;;;9.80;4.30;;;;;;;14.25;97.80;99046.31;4991475;28;20030;-70
2021/08/11 04:54:42;;;;;;;7.82;3.83;;;;;;;14.45;97.45;99064.38;5009785;28;20365;-74
2021/08/11 04:57:07;;;;;;;6.22;3.97;;;;;;;14.40;97.07;99047.88;4996291;28;20026;-70
2021/08/11 04:59:33;;;;;;;10.93;3.90;;;;;;;14.62;96.68;99070.97;5007763;28;20471;-69
2021/08/11 05:01:58;;;;;;;8.30;3.97;;;;;;;14.69;96.30;99066.28;5002105;28;20085;-72
2021/08/11 05:04:23;;;;;;;11.13;3.67;;;;;;;14.81;95.50;99047.31;5006667;28;20095;-79
2021/08/11 05:06:49;;;;;;;5.38;3.38;;;;;;;14.94;94.62;99049.09;4981973;28;20026;-76
2021/08/11 05:09:14;;;;;;;10.65;3.75;;;;;;;15.05;93.47;99064.66;4987926;28;20028;-75
2021/08/11 05:11:41;;;;;;;7.63;3.30;;;;;;;15.28;92.89;99063.19;5005296;28;20038;-68
2021/08/11 05:14:06;;;;;;;8.20;3.53;;;;;;;15.35;92.06;99069.34;5004683;28;20053;-67
2021/08/11 05:16:31;;;;;;;13.15;3.50;;;;;;;15.37;91.71;99060.97;5003652;28;20487;-69
2021/08/11 05:18:57;;;;;;;9.00;3.85;;;;;;;15.37;91.42;99050.06;5008805;28;20025;-71
2021/08/11 05:21:23;;;;;;;7.03;3.53;;;;;;;15.46;90.81;99040.53;5011805;28;20030;-69
2021/08/11 05:23:49;;;;;;;8.25;3.13;;;;;;;15.88;89.84;99074.19;5003681;28;20022;-72
2021/08/11 05:26:14;;;;;;;8.45;3.40;;;;;;;15.86;88.89;99053.66;5000179;28;20044;-70
2021/08/11 05:28:39;;;;;;;8.85;3.50;;;;;;;15.99;88.64;99070.66;4994826;28;20025;-70
2021/08/11 05:31:04;;;;;;;10.73;3.25;;;;;;;16.03;88.64;99064.72;4997260;28;20104;-69
2021/08/11 05:33:30;;;;;;;11.30;3.60;;;;;;;16.29;88.31;99086.16;5013635;28;20026;-68
2021/08/11 05:35:55;;;;;;;6.80;3.10;;;;;;;16.31;87.30;99064.09;5013272;28;20029;-73
2021/08/11 05:38:21;;;;;;;12.43;3.03;;;;;;;16.43;86.04;99076.72;4993316;28;20033;-73
2021/08/11 05:40:47;;;;;;;5.53;3.13;;;;;;;16.55;86.38;99081.34;5013090;28;20073;-73
2021/08/11 05:43:13;;;;;;;10.23;3.50;;;;;;;16.64;85.57;99053.47;5012749;28;20034;-73
2021/08/11 05:45:38;;;;;;;9.18;3.50;;;;;;;16.96;84.57;99072.25;5011284;28;20026;-72
2021/08/11 05:48:04;;;;;;;4.60;2.85;;;;;;;16.99;83.14;99063.59;4995703;28;20438;-73
2021/08/11 05:50:30;;;;;;;5.50;3.45;;;;;;;17.26;81.71;99057.59;5010651;28;20479;-76
2021/08/11 05:52:56;;;;;;;10.23;3.30;;;;;;;17.37;81.22;99075.06;4995520;28;20121;-74
2021/08/11 05:55:21;;;;;;;6.82;3.45;;;;;;;17.17;82.28;99061.78;5013017;28;20073;-77
2021/08/11 05:57:47;;;;;;;7.63;3.30;;;;;;;17.21;82.15;99072.03;5011110;28;20038;-73
2021/08/11 06:00:12;;;;;;;5.53;3.00;;;;;;;17.22;81.06;99070.94;4977332;28;20117;-75
2021/08/11 06:02:42;;;;;;;9.60;3.55;;;;;;;17.52;80.25;99089.06;4995972;28;20411;-72
2021/08/11 06:05:09;;;;;;;11.63;3.72;;;;;;;17.92;78.52;99085.50;5012817;28;20026;-77
2021/08/11 06:07:34;;;;;;;7.75;3.30;;;;;;;18.01;77.26;99085.97;4995681;28;20038;-72
2021/08/11 06:10:00;;;;;;;6.10;3.50;;;;;;;18.05;77.69;99096.19;4987541;28;20478;-75
2021/08/11 06:12:25;;;;;;;4.65;3.17;;;;;;;18.08;77.01;99083.91;4975621;28;20514;-72
2021/08/11 06:14:50;;;;;;;9.80;3.42;;;;;;;18.65;75.20;99089.28;5011888;28;20108;-70
2021/08/11 06:17:16;;;;;;;6.35;2.92;;;;;;;19.24;73.34;99084.19;5002210;28;20026;-71
2021/08/11 06:19:42;;;;;;;5.13;2.92;;;;;;;20.04;70.79;99081.91;4999891;28;20437;-76
2021/08/11 06:22:09;;;;;;;6.50;3.20;;;;;;;21.01;67.20;99070.91;5008908;28;20545;-71
2021/08/11 06:24:34;;;;;;;5.85;3.25;;;;;;;22.23;62.16;99040.34;5006343;28;20083;-74
2021/08/11 06:26:59;;;;;;;8.70;3.20;;;;;;;23.62;58.08;99071.34;4995366;28;20025;-73
2021/08/11 06:29:24;;;;;;;4.97;2.95;;;;;;;25.10;54.58;99056.50;5012454;28;20156;-74
2021/08/11 06:31:50;;;;;;;8.10;3.40;;;;;;;26.00;51.02;99060.44;5012449;28;20034;-74
2021/08/11 06:34:17;;;;;;;5.43;3.33;;;;;;;26.94;48.76;99061.47;4990657;28;20164;-72
2021/08/11 06:36:42;;;;;;;8.75;2.88;;;;;;;26.77;49.13;99073.13;4994398;28;20551;-75
2021/08/11 06:39:08;;;;;;;4.55;2.78;;;;;;;28.07;46.03;99079.53;4995062;28;20053;-72
2021/08/11 06:41:33;;;;;;;6.78;2.90;;;;;;;29.30;43.54;99072.94;5002087;28;20072;-71
2021/08/11 06:43:58;;;;;;;5.38;2.63;;;;;;;29.94;41.20;99056.59;5006825;28;20032;-73
2021/08/11 06:46:24;;;;;;;7.18;2.65;;;;;;;31.32;40.24;99074.41;5007393;28;20037;-73
2021/08/11 06:48:49;;;;;;;4.72;2.80;;;;;;;32.02;37.87;99060.13;5002682;28;20121;-71
2021/08/11 06:51:14;;;;;;;5.93;2.30;;;;;;;32.62;37.53;99077.63;5003974;28;20522;-70
2021/08/11 06:53:40;;;;;;;3.88;2.05;;;;;;;32.95;37.03;99074.81;5000549;28;20452;-71
2021/08/11 06:56:05;;;;;;;5.90;2.35;;;;;;;32.43;37.50;99064.91;4994072;28;20083;-73
2021/08/11 06:58:31;;;;;;;4.68;2.45;;;;;;;30.67;40.67;99059.59;5011271;28;20032;-73
2021/08/11 07:00:59;;;;;;;5.13;2.28;;;;;;;31.19;39.54;99067.06;5010286;28;20052;-73
2021/08/11 07:03:25;;;;;;;4.38;2.70;;;;;;;32.37;37.28;99051.47;5008892;28;20022;-73
2021/08/11 07:05:50;;;;;;;5.82;2.55;;;;;;;32.50;36.98;99056.00;4995852;28;20088;-73
2021/08/11 07:08:15;;;;;;;5.40;2.63;;;;;;;30.76;40.46;99065.19;4997714;28;20030;-73
2021/08/11 07:10:41;;;;;;;7.93;2.50;;;;;;;29.68;42.79;99049.00;4993730;28;20022;-73
2021/08/11 07:13:06;;;;;;;4.40;2.50;;;;;;;30.99;39.92;99027.53;5004452;28;20692;-73
2021/08/11 07:15:32;;;;;;;4.45;2.20;;;;;;;32.52;37.46;99057.28;5007779;28;20026;-73
2021/08/11 07:17:58;;;;;;;4.60;2.55;;;;;;;32.18;38.38;99063.97;5001631;28;20037;-69
2021/08/11 07:20:25;;;;;;;4.32;2.47;;;;;;;32.88;36.73;99066.16;5004632;28;20026;-68
2021/08/11 07:22:50;;;;;;;5.38;2.60;;;;;;;32.18;37.88;99069.56;5002769;28;20026;-68
2021/08/11 07:25:16;;;;;;;5.90;2.60;;;;;;;31.22;38.50;99072.81;4997113;28;20097;-68
2021/08/11 07:27:41;;;;;;;6.05;2.92;;;;;;;29.36;42.55;99074.44;4982082;28;20030;-68
2021/08/11 07:30:07;;;;;;;6.72;2.75;;;;;;;30.88;40.16;99061.72;4998687;28;20034;-69
2021/08/11 07:32:32;;;;;;;5.22;2.58;;;;;;;32.25;37.66;99060.59;5002191;28;20025;-67
2021/08/11 07:34:58;;;;;;;5.15;2.47;;;;;;;33.24;35.23;99064.66;4982702;28;20025;-72
2021/08/11 07:37:23;;;;;;;4.28;2.38;;;;;;;32.60;36.00;99068.75;4997145;28;20042;-69
2021/08/11 07:39:48;;;;;;;13.15;2.60;;;;;;;33.38;34.19;99059.53;5002407;28;20510;-68
2021/08/11 07:42:14;;;;;;;9.15;2.72;;;;;;;33.48;34.03;99047.81;4989135;28;20045;-75
2021/08/11 07:44:39;;;;;;;4.70;2.85;;;;;;;34.52;33.13;99059.53;5009432;28;20040;-74
2021/08/11 07:47:04;;;;;;;4.95;2.17;;;;;;;35.17;31.67;99047.31;5011894;28;20084;-77
2021/08/11 07:49:31;;;;;;;6.50;2.58;;;;;;;35.28;31.55;99029.50;4995168;28;20030;-73
2021/08/11 07:51:56;;;;;;;4.22;2.33;;;;;;;35.17;32.06;99058.56;4998520;28;20050;-69
2021/08/11 07:54:21;;;;;;;6.40;2.70;;;;;;;35.27;31.82;99047.59;5008928;28;20057;-75
2021/08/11 07:56:47;;;;;;;7.88;2.80;;;;;;;34.97;31.15;99016.22;5028441;23;20050;-73
2021/08/11 07:59:12;;;;;;;4.55;2.50;;;;;;;34.57;32.50;99042.44;5009528;28;20058;-74
2021/08/11 08:01:37;;;;;;;8.90;2.50;;;;;;;34.14;34.36;99046.78;4995371;28;20438;-72
2021/08/11 08:04:03;;;;;;;6.25;2.47;;;;;;;34.96;32.19;99042.72;5003285;28;20387;-73
2021/08/11 08:06:28;;;;;;;6.00;2.20;;;;;;;35.96;30.81;99044.44;5007768;28;20030;-73
2021/08/11 08:08:54;;;;;;;7.40;2.65;;;;;;;35.93;30.71;99045.19;5006675;28;20026;-73
2021/08/11 08:11:19;;;;;;;4.35;2.22;;;;;;;36.50;29.47;99042.78;5010031;28;20061;-71
2021/08/11 08:13:45;;;;;;;5.32;2.00;;;;;;;36.38;29.41;99043.78;5014488;28;20108;-73
2021/08/11 08:16:13;;;;;;;6.07;2.17;;;;;;;34.95;31.32;99035.44;5013271;28;20498;-72
2021/08/11 08:18:39;;;;;;;5.15;2.30;;;;;;;33.97;32.51;99047.81;5009340;28;20029;-72
2021/08/11 08:21:04;;;;;;;4.13;2.28;;;;;;;35.60;30.75;99043.59;5012759;28;20109;-74
2021/08/11 08:23:29;;;;;;;3.35;2.35;;;;;;;33.03;34.74;99042.28;5013752;28;20109;-73
2021/08/11 08:25:55;;;;;;;3.88;2.33;;;;;;;34.37;32.52;99032.19;5000583;28;20032;-75
2021/08/11 08:28:20;;;;;;;6.35;2.25;;;;;;;33.98;33.11;99037.41;5005292;28;20104;-74
2021/08/11 08:30:46;;;;;;;4.25;2.40;;;;;;;33.74;33.34;99047.50;5012500;28;20041;-75
2021/08/11 08:33:12;;;;;;;4.53;2.55;;;;;;;33.90;34.06;99038.38;5014175;28;20029;-75
2021/08/11 08:35:37;;;;;;;6.57;2.40;;;;;;;34.53;32.04;99040.66;5012911;28;20025;-75
2021/08/11 08:38:02;;;;;;;6.20;2.53;;;;;;;34.75;31.74;99033.72;5014252;28;20028;-75
2021/08/11 08:40:34;;;;;;;4.47;2.50;;;;;;;34.08;33.50;99041.75;5014155;28;20464;-73
2021/08/11 08:43:00;;;;;;;4.43;2.58;;;;;;;34.85;31.99;99036.00;5013340;28;20018;-73
2021/08/11 08:45:26;;;;;;;3.97;2.17;;;;;;;35.78;30.38;99032.75;5014102;28;20495;-74
2021/08/11 08:47:52;;;;;;;4.95;2.38;;;;;;;36.11;30.06;99037.16;5015858;28;20033;-76
2021/08/11 08:50:19;;;;;;;3.63;2.25;;;;;;;36.23;29.80;99045.47;5014657;28;20029;-76
2021/08/11 08:52:45;;;;;;;4.97;2.80;;;;;;;34.64;31.79;99053.91;5009416;28;20022;-74
2021/08/11 08:55:11;;;;;;;5.70;2.35;;;;;;;35.50;30.31;99056.22;5015837;28;20017;-73
2021/08/11 08:57:36;;;;;;;3.97;2.30;;;;;;;35.74;30.53;99043.13;5015473;28;20040;-73
2021/08/11 09:00:11;;;;;;;4.72;2.40;;;;;;;33.89;33.38;99053.59;5016247;28;20117;-74
2021/08/11 09:02:38;;;;;;;6.00;2.20;;;;;;;35.70;30.36;99048.66;5009472;28;20032;-73
2021/08/11 09:05:11;;;;;;;6.85;2.00;;;;;;;35.96;30.61;99050.88;5016102;28;20025;-74
2021/08/11 09:07:45;;;;;;;4.57;2.20;;;;;;;36.30;29.18;99051.25;5013812;28;20545;-74
2021/08/11 09:10:30;;;;;;;2.88;2.13;;;;;;;35.36;30.11;99052.22;5007079;28;20093;-76
2021/08/11 09:13:05;;;;;;;4.03;2.20;;;;;;;34.73;30.96;99050.91;5012201;28;20087;-72
2021/08/11 09:15:35;;;;;;;3.78;2.38;;;;;;;35.93;29.56;99048.81;5010916;28;20030;-75
2021/08/11 09:18:26;;;;;;;5.22;2.25;;;;;;;35.63;30.07;99054.09;4998567;28;20034;-74
2021/08/11 09:21:06;;;;;;;3.88;2.00;;;;;;;35.75;29.75;99042.75;4988603;28;20042;-71
2021/08/11 09:23:42;;;;;;;3.97;2.20;;;;;;;36.62;28.21;99051.13;5012294;28;20495;-74
2021/08/11 09:26:10;;;;;;;3.13;1.95;;;;;;;35.80;30.33;99052.91;5008918;28;20077;-69
2021/08/11 09:28:39;;;;;;;2.78;2.00;;;;;;;35.06;31.26;99047.81;5007346;28;20025;-74
2021/08/11 09:31:31;;;;;;;3.47;2.05;;;;;;;36.12;29.67;99048.03;5011594;28;20058;-72
2021/08/11 09:34:01;;;;;;;4.03;2.25;;;;;;;36.06;29.13;99051.50;5007556;28;20146;-69
2021/08/11 09:36:38;;;;;;;3.65;2.15;;;;;;;35.24;31.30;99053.09;4996736;28;20030;-76
2021/08/11 09:39:04;;;;;;;4.50;1.98;;;;;;;36.12;29.41;99048.03;5002262;28;20434;-75
2021/08/11 09:41:31;;;;;;;6.50;2.42;;;;;;;36.37;28.17;99050.59;5002758;28;20041;-75
2021/08/11 09:44:11;;;;;;;3.85;2.10;;;;;;;36.47;29.09;99043.53;5009726;28;20033;-74
2021/08/11 09:46:38;;;;;;;3.78;2.00;;;;;;;37.21;27.29;99047.06;5008860;28;20029;-76
2021/08/11 09:49:18;;;;;;;4.28;2.00;;;;;;;36.94;27.92;99045.28;5006739;28;20050;-75
2021/08/11 09:51:57;;;;;;;2.25;1.88;;;;;;;36.83;28.88;99037.44;5002275;28;20019;-76
2021/08/11 09:54:23;;;;;;;2.60;1.73;;;;;;;38.06;26.62;99040.38;5007682;28;20030;-75
2021/08/11 09:56:48;;;;;;;5.72;2.20;;;;;;;35.84;29.86;99036.09;5007491;28;20036;-75
2021/08/11 09:59:14;;;;;;;3.50;1.90;;;;;;;37.15;27.53;99048.53;5008200;28;20479;-76
2021/08/11 10:01:39;;;;;;;7.32;1.77;;;;;;;37.25;28.73;99052.75;5014612;28;20026;-74
2021/08/11 10:04:06;;;;;;;2.83;1.65;;;;;;;37.90;26.47;99052.63;5017291;28;20022;-76
2021/08/11 10:06:34;;;;;;;3.37;1.97;;;;;;;39.22;24.98;99050.69;5026512;28;20022;-78
2021/08/11 10:09:24;;;;;;;3.65;1.98;;;;;;;36.25;28.37;99057.19;5019589;28;20024;-79
2021/08/11 10:11:53;;;;;;;3.80;2.10;;;;;;;35.79;29.00;99051.31;5027639;28;20108;-76
2021/08/11 10:14:21;;;;;;;4.05;1.92;;;;;;;36.69;28.76;99044.84;5017661;28;20033;-75
2021/08/11 10:16:48;;;;;;;3.90;1.80;;;;;;;35.51;30.46;99045.75;5019429;28;20034;-76
2021/08/11 10:19:14;;;;;;;3.03;2.00;;;;;;;34.99;31.21;99052.41;5022915;28;20032;-79
2021/08/11 10:21:48;;;;;;;5.15;1.90;;;;;;;35.16;31.47;99054.09;5021086;28;20029;-73
2021/08/11 10:24:14;;;;;;;2.90;1.80;;;;;;;35.62;30.76;99051.69;5015878;28;20030;-75
2021/08/11 10:26:40;;;;;;;3.70;1.90;;;;;;;36.31;28.85;99050.06;5017829;28;20030;-75
2021/08/11 10:29:06;;;;;;;4.15;1.60;;;;;;;37.11;28.22;99049.69;5017091;28;20376;-76
2021/08/11 10:31:32;;;;;;;5.43;1.90;;;;;;;37.78;27.55;99049.19;5001040;28;20027;-75
2021/08/11 10:34:00;;;;;;;4.60;1.80;;;;;;;37.14;27.92;99043.28;5024661;28;20033;-75
2021/08/11 10:36:28;;;;;;;3.45;1.90;;;;;;;35.59;30.43;99044.78;5024538;28;20033;-75
2021/08/11 10:38:56;;;;;;;3.53;1.90;;;;;;;34.40;32.25;99032.31;4994473;28;20074;-75
2021/08/11 10:41:27;;;;;;;4.55;2.00;;;;;;;33.38;33.73;99051.13;5013816;28;20025;-75
2021/08/11 10:43:52;;;;;;;3.33;1.65;;;;;;;36.02;29.96;99047.78;5021118;28;20072;-75
2021/08/11 10:46:20;;;;;;;3.30;1.88;;;;;;;37.60;27.97;99041.28;5014597;28;20025;-75
2021/08/11 10:48:59;;;;;;;5.90;1.85;;;;;;;38.26;26.82;99041.84;5012297;28;20372;-75
2021/08/11 10:51:42;;;;;;;2.10;1.50;;;;;;;38.62;27.17;99044.31;4996664;28;20026;-75
2021/08/11 10:54:08;;;;;;;5.55;1.88;;;;;;;38.47;27.08;99037.72;5004667;28;20068;-74
2021/08/11 10:56:48;;;;;;;3.15;1.70;;;;;;;39.00;26.29;99031.84;5007483;28;20034;-76
2021/08/11 10:59:43;;;;;;;3.15;1.73;;;;;;;37.05;27.81;99037.91;5008055;28;20032;-76
2021/08/11 11:02:37;;;;;;;2.60;1.60;;;;;;;39.18;27.40;99032.03;4999543;28;20042;-73
2021/08/11 11:05:03;;;;;;;2.90;1.48;;;;;;;39.55;26.60;99028.31;5001262;28;20079;-71
2021/08/11 11:07:28;;;;;;;2.33;1.50;;;;;;;39.41;26.78;99021.34;5004471;28;20022;-73
2021/08/11 11:10:27;;;;;;;5.47;1.50;;;;;;;39.57;26.53;99026.72;4997536;28;20522;-74
2021/08/11 11:12:52;;;;;;;4.50;1.58;;;;;;;38.86;28.27;99017.53;4996029;28;20364;-75
2021/08/11 11:15:39;;;;;;;2.50;1.70;;;;;;;36.66;30.76;99023.84;5012631;28;20566;-75
2021/08/11 11:18:21;;;;;;;2.87;1.73;;;;;;;35.48;32.19;99023.97;5011271;28;20037;-73
2021/08/11 11:20:47;;;;;;;3.22;1.67;;;;;;;33.87;33.40;99022.22;5008944;28;20320;-71
2021/08/11 11:23:39;;;;;;;3.15;1.70;;;;;;;34.37;33.40;99032.19;5005649;28;20467;-71
2021/08/11 11:26:12;;;;;;;2.35;1.50;;;;;;;33.41;33.89;99027.97;4995010;28;20044;-75
2021/08/11 11:29:09;;;;;;;3.50;1.90;;;;;;;34.42;35.12;99023.50;5004667;28;20160;-74
2021/08/11 11:31:42;;;;;;;2.90;1.87;;;;;;;34.80;34.15;99023.00;5007271;28;20034;-71
2021/08/11 11:34:26;;;;;;;6.38;1.90;;;;;;;33.51;34.66;99021.91;5008465;28;20280;-74